sensor_id;sensor_type;location;lat;lon;timestamp;temperature;humidity
39023;DHT22;25908;51.984;5.928;2022-10-15T00:01:38;12.80;99.90
39023;DHT22;25908;51.984;5.928;2022-10-15T00:04:04;12.80;99.90
39023;DHT22;25908;51.984;5.928;2022-10-15T00:06:30;12.70;99.90
39023;DHT22;25908;51.984;5.928;2022-10-15T00:08:56;12.70;99.90
39023;DHT22;25908;51.984;5.928;2022-10-15T00:11:24;12.70;99.90
39023;DHT22;25908;51.984;5.928;2022-10-15T00:13:52;12.70;99.90
39023;DHT22;25908;51.984;5.928;2022-10-15T00:16:22;12.70;99.90
39023;DHT22;25908;51.984;5.928;2022-10-15T00:18:48;12.70;99.90
39023;DHT22;25908;51.984;5.928;2022-10-15T00:21:15;12.70;99.90
39023;DHT22;25908;51.984;5.928;2022-10-15T00:23:42;12.70;99.90
39023;DHT22;25908;51.984;5.928;2022-10-15T00:26:43;12.70;99.90
39023;DHT22;25908;51.984;5.928;2022-10-15T00:29:02;12.60;99.90
39023;DHT22;25908;51.984;5.928;2022-10-15T00:31:29;12.60;99.90
39023;DHT22;25908;51.984;5.928;2022-10-15T00:33:58;12.60;99.90
39023;DHT22;25908;51.984;5.928;2022-10-15T00:36:26;12.60;99.90
39023;DHT22;25908;51.984;5.928;2022-10-15T00:38:52;12.50;99.90
39023;DHT22;25908;51.984;5.928;2022-10-15T00:41:23;12.50;99.90
39023;DHT22;25908;51.984;5.928;2022-10-15T00:44:01;12.50;99.90
39023;DHT22;25908;51.984;5.928;2022-10-15T00:46:39;12.50;99.90
39023;DHT22;25908;51.984;5.928;2022-10-15T00:49:17;12.40;99.90
39023;DHT22;25908;51.984;5.928;2022-10-15T00:51:46;12.40;99.90
39023;DHT22;25908;51.984;5.928;2022-10-15T00:54:14;12.40;99.90
39023;DHT22;25908;51.984;5.928;2022-10-15T00:56:42;12.40;99.90
39023;DHT22;25908;51.984;5.928;2022-10-15T00:59:10;12.30;99.90
39023;DHT22;25908;51.984;5.928;2022-10-15T01:01:37;12.30;99.90
39023;DHT22;25908;51.984;5.928;2022-10-15T01:04:04;12.20;99.90
39023;DHT22;25908;51.984;5.928;2022-10-15T01:06:30;12.20;99.90
39023;DHT22;25908;51.984;5.928;2022-10-15T01:08:56;12.20;99.90
39023;DHT22;25908;51.984;5.928;2022-10-15T01:17:27;12.20;99.90
39023;DHT22;25908;51.984;5.928;2022-10-15T01:23:40;12.10;99.90
39023;DHT22;25908;51.984;5.928;2022-10-15T01:28:41;12.10;99.90
39023;DHT22;25908;51.984;5.928;2022-10-15T01:32:02;12.10;99.90
39023;DHT22;25908;51.984;5.928;2022-10-15T01:34:52;12.10;99.90
39023;DHT22;25908;51.984;5.928;2022-10-15T01:37:39;12.10;99.90
39023;DHT22;25908;51.984;5.928;2022-10-15T01:40:35;12.10;99.90
39023;DHT22;25908;51.984;5.928;2022-10-15T01:43:03;12.20;99.90
39023;DHT22;25908;51.984;5.928;2022-10-15T01:45:47;12.20;99.90
39023;DHT22;25908;51.984;5.928;2022-10-15T01:48:15;12.20;99.90
39023;DHT22;25908;51.984;5.928;2022-10-15T01:50:47;12.20;99.90
39023;DHT22;25908;51.984;5.928;2022-10-15T01:53:17;12.20;99.90
39023;DHT22;25908;51.984;5.928;2022-10-15T01:55:44;12.20;99.90
39023;DHT22;25908;51.984;5.928;2022-10-15T01:58:13;12.20;99.90
39023;DHT22;25908;51.984;5.928;2022-10-15T02:00:41;12.20;99.90
39023;DHT22;25908;51.984;5.928;2022-10-15T02:03:07;12.20;99.90
39023;DHT22;25908;51.984;5.928;2022-10-15T02:05:39;12.30;99.90
39023;DHT22;25908;51.984;5.928;2022-10-15T02:08:24;12.30;99.90
39023;DHT22;25908;51.984;5.928;2022-10-15T02:11:05;12.30;99.90
39023;DHT22;25908;51.984;5.928;2022-10-15T02:18:51;12.30;99.90
39023;DHT22;25908;51.984;5.928;2022-10-15T02:21:35;12.30;99.90
39023;DHT22;25908;51.984;5.928;2022-10-15T02:24:28;12.30;99.90
39023;DHT22;25908;51.984;5.928;2022-10-15T02:26:58;12.30;99.90
39023;DHT22;25908;51.984;5.928;2022-10-15T02:29:32;12.30;99.90
39023;DHT22;25908;51.984;5.928;2022-10-15T02:31:59;12.30;99.90
39023;DHT22;25908;51.984;5.928;2022-10-15T02:34:28;12.30;99.90
39023;DHT22;25908;51.984;5.928;2022-10-15T02:36:59;12.30;99.90
39023;DHT22;25908;51.984;5.928;2022-10-15T02:39:25;12.30;99.90
39023;DHT22;25908;51.984;5.928;2022-10-15T02:41:52;12.30;99.90
39023;DHT22;25908;51.984;5.928;2022-10-15T02:44:19;12.30;99.90
39023;DHT22;25908;51.984;5.928;2022-10-15T02:46:45;12.40;99.90
39023;DHT22;25908;51.984;5.928;2022-10-15T02:49:10;12.30;99.90
39023;DHT22;25908;51.984;5.928;2022-10-15T02:51:36;12.30;99.90
39023;DHT22;25908;51.984;5.928;2022-10-15T02:54:05;12.40;99.90
39023;DHT22;25908;51.984;5.928;2022-10-15T02:56:32;12.40;99.90
39023;DHT22;25908;51.984;5.928;2022-10-15T02:58:58;12.30;99.90
39023;DHT22;25908;51.984;5.928;2022-10-15T03:01:23;12.30;99.90
39023;DHT22;25908;51.984;5.928;2022-10-15T03:03:49;12.30;99.90
39023;DHT22;25908;51.984;5.928;2022-10-15T03:06:15;12.30;99.90
39023;DHT22;25908;51.984;5.928;2022-10-15T03:08:41;12.30;99.90
39023;DHT22;25908;51.984;5.928;2022-10-15T03:11:07;12.40;99.90
39023;DHT22;25908;51.984;5.928;2022-10-15T03:13:37;12.40;99.90
39023;DHT22;25908;51.984;5.928;2022-10-15T03:16:07;12.40;99.90
39023;DHT22;25908;51.984;5.928;2022-10-15T03:18:33;12.30;99.90
39023;DHT22;25908;51.984;5.928;2022-10-15T03:20:59;12.30;99.90
39023;DHT22;25908;51.984;5.928;2022-10-15T03:23:26;12.30;99.90
39023;DHT22;25908;51.984;5.928;2022-10-15T03:25:52;12.20;99.90
39023;DHT22;25908;51.984;5.928;2022-10-15T03:28:18;12.20;99.90
39023;DHT22;25908;51.984;5.928;2022-10-15T03:30:44;12.20;99.90
39023;DHT22;25908;51.984;5.928;2022-10-15T03:33:10;12.20;99.90
39023;DHT22;25908;51.984;5.928;2022-10-15T03:35:36;12.10;99.90
39023;DHT22;25908;51.984;5.928;2022-10-15T03:38:02;12.20;99.90
39023;DHT22;25908;51.984;5.928;2022-10-15T03:40:28;12.10;99.90
39023;DHT22;25908;51.984;5.928;2022-10-15T03:42:53;12.10;99.90
39023;DHT22;25908;51.984;5.928;2022-10-15T03:45:21;12.20;99.90
39023;DHT22;25908;51.984;5.928;2022-10-15T03:47:46;12.20;99.90
39023;DHT22;25908;51.984;5.928;2022-10-15T03:50:12;12.20;99.90
39023;DHT22;25908;51.984;5.928;2022-10-15T03:52:39;12.20;99.90
39023;DHT22;25908;51.984;5.928;2022-10-15T03:55:06;12.20;99.90
39023;DHT22;25908;51.984;5.928;2022-10-15T03:57:32;12.20;99.90
39023;DHT22;25908;51.984;5.928;2022-10-15T03:59:57;12.20;99.90
39023;DHT22;25908;51.984;5.928;2022-10-15T04:02:23;12.20;99.90
39023;DHT22;25908;51.984;5.928;2022-10-15T04:04:53;12.30;99.90
39023;DHT22;25908;51.984;5.928;2022-10-15T04:07:19;12.30;99.90
39023;DHT22;25908;51.984;5.928;2022-10-15T04:09:46;12.30;99.90
39023;DHT22;25908;51.984;5.928;2022-10-15T04:12:11;12.30;99.90
39023;DHT22;25908;51.984;5.928;2022-10-15T04:14:38;12.30;99.90
39023;DHT22;25908;51.984;5.928;2022-10-15T04:17:03;12.30;99.90
39023;DHT22;25908;51.984;5.928;2022-10-15T04:19:29;12.30;99.90
39023;DHT22;25908;51.984;5.928;2022-10-15T04:21:55;12.30;99.90
39023;DHT22;25908;51.984;5.928;2022-10-15T04:24:21;12.30;99.90
39023;DHT22;25908;51.984;5.928;2022-10-15T04:26:46;12.30;99.90
39023;DHT22;25908;51.984;5.928;2022-10-15T04:29:12;12.30;99.90
39023;DHT22;25908;51.984;5.928;2022-10-15T04:31:37;12.30;99.90
39023;DHT22;25908;51.984;5.928;2022-10-15T04:34:03;12.30;99.90
39023;DHT22;25908;51.984;5.928;2022-10-15T04:36:29;12.30;99.90
39023;DHT22;25908;51.984;5.928;2022-10-15T04:38:54;12.30;99.90
39023;DHT22;25908;51.984;5.928;2022-10-15T04:41:20;12.20;99.90
39023;DHT22;25908;51.984;5.928;2022-10-15T04:43:46;12.20;99.90
39023;DHT22;25908;51.984;5.928;2022-10-15T04:46:11;12.20;99.90
39023;DHT22;25908;51.984;5.928;2022-10-15T04:48:37;12.20;99.90
39023;DHT22;25908;51.984;5.928;2022-10-15T04:51:08;12.20;99.90
39023;DHT22;25908;51.984;5.928;2022-10-15T04:53:34;12.20;99.90
39023;DHT22;25908;51.984;5.928;2022-10-15T04:56:01;12.20;99.90
39023;DHT22;25908;51.984;5.928;2022-10-15T04:58:29;12.20;99.90
39023;DHT22;25908;51.984;5.928;2022-10-15T05:01:08;12.20;99.90
39023;DHT22;25908;51.984;5.928;2022-10-15T05:03:34;12.20;99.90
39023;DHT22;25908;51.984;5.928;2022-10-15T05:06:00;12.20;99.90
39023;DHT22;25908;51.984;5.928;2022-10-15T05:08:28;12.20;99.90
39023;DHT22;25908;51.984;5.928;2022-10-15T05:10:53;12.20;99.90
39023;DHT22;25908;51.984;5.928;2022-10-15T05:13:19;12.20;99.90
39023;DHT22;25908;51.984;5.928;2022-10-15T05:15:45;12.20;99.90
39023;DHT22;25908;51.984;5.928;2022-10-15T05:18:10;12.30;99.90
39023;DHT22;25908;51.984;5.928;2022-10-15T05:20:36;12.30;99.90
39023;DHT22;25908;51.984;5.928;2022-10-15T05:23:02;12.30;99.90
39023;DHT22;25908;51.984;5.928;2022-10-15T05:25:28;12.30;99.90
39023;DHT22;25908;51.984;5.928;2022-10-15T05:27:54;12.30;99.90
39023;DHT22;25908;51.984;5.928;2022-10-15T05:30:20;12.30;99.90
39023;DHT22;25908;51.984;5.928;2022-10-15T05:32:45;12.30;99.90
39023;DHT22;25908;51.984;5.928;2022-10-15T05:35:15;12.40;99.90
39023;DHT22;25908;51.984;5.928;2022-10-15T05:37:40;12.40;99.90
39023;DHT22;25908;51.984;5.928;2022-10-15T05:40:06;12.40;99.90
39023;DHT22;25908;51.984;5.928;2022-10-15T05:42:32;12.40;99.90
39023;DHT22;25908;51.984;5.928;2022-10-15T05:44:58;12.40;99.90
39023;DHT22;25908;51.984;5.928;2022-10-15T05:47:23;12.40;99.90
39023;DHT22;25908;51.984;5.928;2022-10-15T05:49:49;12.40;99.90
39023;DHT22;25908;51.984;5.928;2022-10-15T05:52:14;12.40;99.90
39023;DHT22;25908;51.984;5.928;2022-10-15T05:54:41;12.40;99.90
39023;DHT22;25908;51.984;5.928;2022-10-15T05:57:06;12.50;99.90
39023;DHT22;25908;51.984;5.928;2022-10-15T05:59:32;12.50;99.90
39023;DHT22;25908;51.984;5.928;2022-10-15T06:01:57;12.50;99.90
39023;DHT22;25908;51.984;5.928;2022-10-15T06:04:23;12.50;99.90
39023;DHT22;25908;51.984;5.928;2022-10-15T06:06:48;12.60;99.90
39023;DHT22;25908;51.984;5.928;2022-10-15T06:09:14;12.60;99.90
39023;DHT22;25908;51.984;5.928;2022-10-15T06:11:40;12.60;99.90
39023;DHT22;25908;51.984;5.928;2022-10-15T06:14:05;12.60;99.90
39023;DHT22;25908;51.984;5.928;2022-10-15T06:16:31;12.60;99.90
39023;DHT22;25908;51.984;5.928;2022-10-15T06:18:57;12.60;99.90
39023;DHT22;25908;51.984;5.928;2022-10-15T06:21:23;12.70;99.90
39023;DHT22;25908;51.984;5.928;2022-10-15T06:23:49;12.70;99.90
39023;DHT22;25908;51.984;5.928;2022-10-15T06:26:16;12.80;99.90
39023;DHT22;25908;51.984;5.928;2022-10-15T06:28:41;12.90;99.90
39023;DHT22;25908;51.984;5.928;2022-10-15T06:31:07;12.90;99.90
39023;DHT22;25908;51.984;5.928;2022-10-15T06:33:34;13.00;99.90
39023;DHT22;25908;51.984;5.928;2022-10-15T06:36:04;13.00;99.90
39023;DHT22;25908;51.984;5.928;2022-10-15T06:38:31;13.10;99.90
39023;DHT22;25908;51.984;5.928;2022-10-15T06:40:56;13.10;99.90
39023;DHT22;25908;51.984;5.928;2022-10-15T06:43:22;13.20;99.90
39023;DHT22;25908;51.984;5.928;2022-10-15T06:45:48;13.20;99.90
39023;DHT22;25908;51.984;5.928;2022-10-15T06:48:13;13.30;99.90
39023;DHT22;25908;51.984;5.928;2022-10-15T06:50:39;13.30;99.90
39023;DHT22;25908;51.984;5.928;2022-10-15T06:53:06;13.40;99.90
39023;DHT22;25908;51.984;5.928;2022-10-15T06:55:31;13.40;99.90
39023;DHT22;25908;51.984;5.928;2022-10-15T06:57:57;13.40;99.90
39023;DHT22;25908;51.984;5.928;2022-10-15T07:00:24;13.50;99.90
39023;DHT22;25908;51.984;5.928;2022-10-15T07:02:50;13.50;99.90
39023;DHT22;25908;51.984;5.928;2022-10-15T07:05:16;13.50;99.90
39023;DHT22;25908;51.984;5.928;2022-10-15T07:07:42;13.60;99.90
39023;DHT22;25908;51.984;5.928;2022-10-15T07:10:09;13.60;99.90
39023;DHT22;25908;51.984;5.928;2022-10-15T07:12:34;13.60;99.90
39023;DHT22;25908;51.984;5.928;2022-10-15T07:15:00;13.70;99.90
39023;DHT22;25908;51.984;5.928;2022-10-15T07:17:26;13.70;99.90
39023;DHT22;25908;51.984;5.928;2022-10-15T07:19:52;13.70;99.90
39023;DHT22;25908;51.984;5.928;2022-10-15T07:22:18;13.80;99.90
39023;DHT22;25908;51.984;5.928;2022-10-15T07:24:43;13.80;99.90
39023;DHT22;25908;51.984;5.928;2022-10-15T07:27:09;13.80;99.90
39023;DHT22;25908;51.984;5.928;2022-10-15T07:29:34;13.90;99.90
39023;DHT22;25908;51.984;5.928;2022-10-15T07:32:00;13.90;99.90
39023;DHT22;25908;51.984;5.928;2022-10-15T07:34:25;13.90;99.90
39023;DHT22;25908;51.984;5.928;2022-10-15T07:36:51;14.00;99.90
39023;DHT22;25908;51.984;5.928;2022-10-15T07:39:17;14.00;99.90
39023;DHT22;25908;51.984;5.928;2022-10-15T07:41:43;14.00;99.90
39023;DHT22;25908;51.984;5.928;2022-10-15T07:44:10;14.10;99.90
39023;DHT22;25908;51.984;5.928;2022-10-15T07:46:35;14.10;99.90
39023;DHT22;25908;51.984;5.928;2022-10-15T07:49:01;14.10;99.90
39023;DHT22;25908;51.984;5.928;2022-10-15T07:51:27;14.10;99.90
39023;DHT22;25908;51.984;5.928;2022-10-15T07:53:53;14.10;99.90
39023;DHT22;25908;51.984;5.928;2022-10-15T07:56:19;14.10;99.90
39023;DHT22;25908;51.984;5.928;2022-10-15T07:58:44;14.10;99.90
39023;DHT22;25908;51.984;5.928;2022-10-15T08:01:17;14.10;99.90
39023;DHT22;25908;51.984;5.928;2022-10-15T08:03:43;14.10;99.90
39023;DHT22;25908;51.984;5.928;2022-10-15T08:06:08;14.20;99.90
39023;DHT22;25908;51.984;5.928;2022-10-15T08:08:35;14.20;99.90
39023;DHT22;25908;51.984;5.928;2022-10-15T08:11:18;14.20;99.90
39023;DHT22;25908;51.984;5.928;2022-10-15T08:13:44;14.30;99.90
39023;DHT22;25908;51.984;5.928;2022-10-15T08:16:13;14.30;99.90
39023;DHT22;25908;51.984;5.928;2022-10-15T08:18:38;14.40;99.90
39023;DHT22;25908;51.984;5.928;2022-10-15T08:21:05;14.50;99.90
39023;DHT22;25908;51.984;5.928;2022-10-15T08:23:32;14.50;99.90
39023;DHT22;25908;51.984;5.928;2022-10-15T08:25:59;14.60;99.90
39023;DHT22;25908;51.984;5.928;2022-10-15T08:28:26;14.60;99.90
39023;DHT22;25908;51.984;5.928;2022-10-15T08:30:51;14.70;99.90
39023;DHT22;25908;51.984;5.928;2022-10-15T08:33:17;14.80;99.90
39023;DHT22;25908;51.984;5.928;2022-10-15T08:35:43;15.00;99.90
39023;DHT22;25908;51.984;5.928;2022-10-15T08:38:12;15.30;99.90
39023;DHT22;25908;51.984;5.928;2022-10-15T08:40:38;15.80;99.90
39023;DHT22;25908;51.984;5.928;2022-10-15T08:43:24;16.20;99.90
39023;DHT22;25908;51.984;5.928;2022-10-15T08:45:54;16.50;99.90
39023;DHT22;25908;51.984;5.928;2022-10-15T08:48:31;16.60;99.90
39023;DHT22;25908;51.984;5.928;2022-10-15T08:51:09;16.50;99.90
39023;DHT22;25908;51.984;5.928;2022-10-15T08:53:39;16.50;99.90
39023;DHT22;25908;51.984;5.928;2022-10-15T08:56:20;16.60;99.90
39023;DHT22;25908;51.984;5.928;2022-10-15T08:58:55;16.50;99.90
39023;DHT22;25908;51.984;5.928;2022-10-15T09:01:41;16.40;99.90
39023;DHT22;25908;51.984;5.928;2022-10-15T09:12:53;16.40;99.90
39023;DHT22;25908;51.984;5.928;2022-10-15T09:15:21;16.50;99.90
39023;DHT22;25908;51.984;5.928;2022-10-15T09:17:51;16.50;99.90
39023;DHT22;25908;51.984;5.928;2022-10-15T09:20:31;16.70;99.90
39023;DHT22;25908;51.984;5.928;2022-10-15T09:22:57;16.70;99.90
39023;DHT22;25908;51.984;5.928;2022-10-15T09:25:24;16.80;99.90
39023;DHT22;25908;51.984;5.928;2022-10-15T09:27:54;16.90;99.90
39023;DHT22;25908;51.984;5.928;2022-10-15T09:33:14;16.80;99.90
39023;DHT22;25908;51.984;5.928;2022-10-15T09:36:05;16.70;99.90
39023;DHT22;25908;51.984;5.928;2022-10-15T09:44:14;16.50;99.90
39023;DHT22;25908;51.984;5.928;2022-10-15T09:46:47;16.50;99.90
39023;DHT22;25908;51.984;5.928;2022-10-15T09:49:17;16.50;99.90
39023;DHT22;25908;51.984;5.928;2022-10-15T09:52:07;16.50;99.90
39023;DHT22;25908;51.984;5.928;2022-10-15T09:57:25;16.70;99.90
39023;DHT22;25908;51.984;5.928;2022-10-15T09:59:57;16.80;99.90
39023;DHT22;25908;51.984;5.928;2022-10-15T10:02:25;16.70;99.90
39023;DHT22;25908;51.984;5.928;2022-10-15T10:04:51;16.70;99.90
39023;DHT22;25908;51.984;5.928;2022-10-15T10:09:59;16.50;99.90
39023;DHT22;25908;51.984;5.928;2022-10-15T10:12:28;16.50;99.90
39023;DHT22;25908;51.984;5.928;2022-10-15T10:15:25;16.40;99.90
39023;DHT22;25908;51.984;5.928;2022-10-15T10:17:54;16.40;99.90
39023;DHT22;25908;51.984;5.928;2022-10-15T10:20:23;16.40;99.90
39023;DHT22;25908;51.984;5.928;2022-10-15T10:23:00;16.40;99.90
39023;DHT22;25908;51.984;5.928;2022-10-15T10:27:52;16.40;99.90
39023;DHT22;25908;51.984;5.928;2022-10-15T10:30:19;16.40;99.90
39023;DHT22;25908;51.984;5.928;2022-10-15T10:32:45;16.40;99.90
39023;DHT22;25908;51.984;5.928;2022-10-15T10:35:22;16.40;99.90
39023;DHT22;25908;51.984;5.928;2022-10-15T10:37:48;16.40;99.90
39023;DHT22;25908;51.984;5.928;2022-10-15T10:40:28;16.40;99.90
39023;DHT22;25908;51.984;5.928;2022-10-15T10:43:17;16.30;99.90
39023;DHT22;25908;51.984;5.928;2022-10-15T10:48:50;16.20;99.90
39023;DHT22;25908;51.984;5.928;2022-10-15T10:51:18;16.20;99.90
39023;DHT22;25908;51.984;5.928;2022-10-15T10:53:46;16.20;99.90
39023;DHT22;25908;51.984;5.928;2022-10-15T10:56:13;16.10;99.90
39023;DHT22;25908;51.984;5.928;2022-10-15T10:58:40;16.20;99.90
39023;DHT22;25908;51.984;5.928;2022-10-15T11:01:12;16.20;99.90
39023;DHT22;25908;51.984;5.928;2022-10-15T11:03:40;16.20;99.90
39023;DHT22;25908;51.984;5.928;2022-10-15T11:06:23;16.20;99.90
39023;DHT22;25908;51.984;5.928;2022-10-15T11:09:09;16.10;99.90
39023;DHT22;25908;51.984;5.928;2022-10-15T11:14:59;16.10;99.90
39023;DHT22;25908;51.984;5.928;2022-10-15T11:25:30;16.00;99.90
39023;DHT22;25908;51.984;5.928;2022-10-15T11:34:27;16.10;99.90
39023;DHT22;25908;51.984;5.928;2022-10-15T11:36:52;16.10;99.90
39023;DHT22;25908;51.984;5.928;2022-10-15T11:42:16;16.10;99.90
39023;DHT22;25908;51.984;5.928;2022-10-15T11:45:06;16.10;99.90
39023;DHT22;25908;51.984;5.928;2022-10-15T11:50:34;16.10;99.90
39023;DHT22;25908;51.984;5.928;2022-10-15T11:56:05;16.10;99.90
39023;DHT22;25908;51.984;5.928;2022-10-15T11:58:45;16.20;99.90
39023;DHT22;25908;51.984;5.928;2022-10-15T12:01:31;16.20;99.90
39023;DHT22;25908;51.984;5.928;2022-10-15T12:04:01;16.20;99.90
39023;DHT22;25908;51.984;5.928;2022-10-15T12:06:33;16.20;99.90
39023;DHT22;25908;51.984;5.928;2022-10-15T12:09:02;16.20;99.90
39023;DHT22;25908;51.984;5.928;2022-10-15T12:16:52;16.20;99.90
39023;DHT22;25908;51.984;5.928;2022-10-15T12:19:27;16.20;99.90
39023;DHT22;25908;51.984;5.928;2022-10-15T12:29:52;16.20;99.90
39023;DHT22;25908;51.984;5.928;2022-10-15T12:32:41;16.20;99.90
39023;DHT22;25908;51.984;5.928;2022-10-15T12:37:41;16.30;99.90
39023;DHT22;25908;51.984;5.928;2022-10-15T12:40:24;16.30;99.90
39023;DHT22;25908;51.984;5.928;2022-10-15T12:43:00;16.30;99.90
39023;DHT22;25908;51.984;5.928;2022-10-15T12:45:36;16.30;99.90
39023;DHT22;25908;51.984;5.928;2022-10-15T12:50:32;16.50;99.90
39023;DHT22;25908;51.984;5.928;2022-10-15T12:53:03;16.50;99.90
39023;DHT22;25908;51.984;5.928;2022-10-15T12:55:36;16.60;99.90
39023;DHT22;25908;51.984;5.928;2022-10-15T13:00:52;16.70;99.90
39023;DHT22;25908;51.984;5.928;2022-10-15T13:03:35;16.70;99.90
39023;DHT22;25908;51.984;5.928;2022-10-15T13:08:43;16.80;99.90
39023;DHT22;25908;51.984;5.928;2022-10-15T13:11:24;16.80;99.90
39023;DHT22;25908;51.984;5.928;2022-10-15T13:13:57;16.80;99.90
39023;DHT22;25908;51.984;5.928;2022-10-15T13:16:23;16.80;99.90
39023;DHT22;25908;51.984;5.928;2022-10-15T13:18:51;16.80;99.90
39023;DHT22;25908;51.984;5.928;2022-10-15T13:21:17;16.90;99.90
39023;DHT22;25908;51.984;5.928;2022-10-15T13:23:49;17.00;99.90
39023;DHT22;25908;51.984;5.928;2022-10-15T13:26:22;17.00;99.90
39023;DHT22;25908;51.984;5.928;2022-10-15T13:28:50;17.10;99.90
39023;DHT22;25908;51.984;5.928;2022-10-15T13:31:25;17.10;99.90
39023;DHT22;25908;51.984;5.928;2022-10-15T13:33:55;17.20;99.90
39023;DHT22;25908;51.984;5.928;2022-10-15T13:36:25;17.20;99.90
39023;DHT22;25908;51.984;5.928;2022-10-15T13:38:59;17.20;99.90
39023;DHT22;25908;51.984;5.928;2022-10-15T13:41:30;17.30;99.90
39023;DHT22;25908;51.984;5.928;2022-10-15T13:43:57;17.30;99.90
39023;DHT22;25908;51.984;5.928;2022-10-15T13:46:31;17.30;99.90
39023;DHT22;25908;51.984;5.928;2022-10-15T13:48:58;17.30;99.90
39023;DHT22;25908;51.984;5.928;2022-10-15T13:51:35;17.30;99.90
39023;DHT22;25908;51.984;5.928;2022-10-15T13:54:07;17.30;99.90
39023;DHT22;25908;51.984;5.928;2022-10-15T13:56:33;17.30;99.90
39023;DHT22;25908;51.984;5.928;2022-10-15T13:59:00;17.30;99.90
39023;DHT22;25908;51.984;5.928;2022-10-15T14:01:28;17.30;99.90
39023;DHT22;25908;51.984;5.928;2022-10-15T14:03:58;17.30;99.90
39023;DHT22;25908;51.984;5.928;2022-10-15T14:06:25;17.40;99.90
39023;DHT22;25908;51.984;5.928;2022-10-15T14:08:58;17.30;99.90
39023;DHT22;25908;51.984;5.928;2022-10-15T14:11:24;17.40;99.90
39023;DHT22;25908;51.984;5.928;2022-10-15T14:13:52;17.40;99.90
39023;DHT22;25908;51.984;5.928;2022-10-15T14:16:40;17.40;99.90
39023;DHT22;25908;51.984;5.928;2022-10-15T14:19:13;17.40;99.90
39023;DHT22;25908;51.984;5.928;2022-10-15T14:21:44;17.40;99.90
39023;DHT22;25908;51.984;5.928;2022-10-15T14:24:19;17.30;99.90
39023;DHT22;25908;51.984;5.928;2022-10-15T14:26:46;17.20;99.90
39023;DHT22;25908;51.984;5.928;2022-10-15T14:29:24;17.20;99.90
39023;DHT22;25908;51.984;5.928;2022-10-15T14:31:50;17.10;99.90
39023;DHT22;25908;51.984;5.928;2022-10-15T14:37:00;17.00;99.90
39023;DHT22;25908;51.984;5.928;2022-10-15T14:39:34;17.00;99.90
39023;DHT22;25908;51.984;5.928;2022-10-15T14:42:03;17.00;99.90
39023;DHT22;25908;51.984;5.928;2022-10-15T14:44:46;17.00;99.90
39023;DHT22;25908;51.984;5.928;2022-10-15T14:47:23;17.00;99.90
39023;DHT22;25908;51.984;5.928;2022-10-15T14:49:53;17.00;99.90
39023;DHT22;25908;51.984;5.928;2022-10-15T14:52:20;17.00;99.90
39023;DHT22;25908;51.984;5.928;2022-10-15T14:55:04;17.10;99.90
39023;DHT22;25908;51.984;5.928;2022-10-15T14:57:34;17.10;99.90
39023;DHT22;25908;51.984;5.928;2022-10-15T15:00:02;17.00;99.90
39023;DHT22;25908;51.984;5.928;2022-10-15T15:02:29;17.00;99.90
39023;DHT22;25908;51.984;5.928;2022-10-15T15:07:35;17.00;99.90
39023;DHT22;25908;51.984;5.928;2022-10-15T15:10:02;17.00;99.90
39023;DHT22;25908;51.984;5.928;2022-10-15T15:12:28;17.00;99.90
39023;DHT22;25908;51.984;5.928;2022-10-15T15:14:55;17.00;99.90
39023;DHT22;25908;51.984;5.928;2022-10-15T15:17:23;17.00;99.90
39023;DHT22;25908;51.984;5.928;2022-10-15T15:19:50;16.90;99.90
39023;DHT22;25908;51.984;5.928;2022-10-15T15:22:27;16.90;99.90
39023;DHT22;25908;51.984;5.928;2022-10-15T15:24:54;16.90;99.90
39023;DHT22;25908;51.984;5.928;2022-10-15T15:27:23;16.90;99.90
39023;DHT22;25908;51.984;5.928;2022-10-15T15:29:50;16.90;99.90
39023;DHT22;25908;51.984;5.928;2022-10-15T15:32:15;16.90;99.90
39023;DHT22;25908;51.984;5.928;2022-10-15T15:34:41;16.90;99.90
39023;DHT22;25908;51.984;5.928;2022-10-15T15:37:15;16.90;99.90
39023;DHT22;25908;51.984;5.928;2022-10-15T15:39:42;16.80;99.90
39023;DHT22;25908;51.984;5.928;2022-10-15T15:42:14;16.80;99.90
39023;DHT22;25908;51.984;5.928;2022-10-15T15:44:40;16.70;99.90
39023;DHT22;25908;51.984;5.928;2022-10-15T15:47:06;16.70;99.90
39023;DHT22;25908;51.984;5.928;2022-10-15T15:49:32;16.70;99.90
39023;DHT22;25908;51.984;5.928;2022-10-15T15:51:58;16.60;99.90
39023;DHT22;25908;51.984;5.928;2022-10-15T15:54:23;16.60;99.90
39023;DHT22;25908;51.984;5.928;2022-10-15T15:56:49;16.60;99.90
39023;DHT22;25908;51.984;5.928;2022-10-15T15:59:14;16.60;99.90
39023;DHT22;25908;51.984;5.928;2022-10-15T16:01:41;16.60;99.90
39023;DHT22;25908;51.984;5.928;2022-10-15T16:04:07;16.60;99.90
39023;DHT22;25908;51.984;5.928;2022-10-15T16:06:32;16.50;99.90
39023;DHT22;25908;51.984;5.928;2022-10-15T16:08:58;16.50;99.90
39023;DHT22;25908;51.984;5.928;2022-10-15T16:11:24;16.50;99.90
39023;DHT22;25908;51.984;5.928;2022-10-15T16:13:49;16.40;99.90
39023;DHT22;25908;51.984;5.928;2022-10-15T16:16:15;16.40;99.90
39023;DHT22;25908;51.984;5.928;2022-10-15T16:18:41;16.40;99.90
39023;DHT22;25908;51.984;5.928;2022-10-15T16:21:06;16.30;99.90
39023;DHT22;25908;51.984;5.928;2022-10-15T16:23:32;16.30;99.90
39023;DHT22;25908;51.984;5.928;2022-10-15T16:25:58;16.30;99.90
39023;DHT22;25908;51.984;5.928;2022-10-15T16:28:23;16.30;99.90
39023;DHT22;25908;51.984;5.928;2022-10-15T16:30:49;16.20;99.90
39023;DHT22;25908;51.984;5.928;2022-10-15T16:33:14;16.20;99.90
39023;DHT22;25908;51.984;5.928;2022-10-15T16:35:40;16.20;99.90
39023;DHT22;25908;51.984;5.928;2022-10-15T16:38:05;16.10;99.90
39023;DHT22;25908;51.984;5.928;2022-10-15T16:40:31;16.10;99.90
39023;DHT22;25908;51.984;5.928;2022-10-15T16:42:57;16.00;99.90
39023;DHT22;25908;51.984;5.928;2022-10-15T16:45:22;16.00;99.90
39023;DHT22;25908;51.984;5.928;2022-10-15T16:47:48;16.00;99.90
39023;DHT22;25908;51.984;5.928;2022-10-15T16:50:13;15.90;99.90
39023;DHT22;25908;51.984;5.928;2022-10-15T16:52:39;15.80;99.90
39023;DHT22;25908;51.984;5.928;2022-10-15T16:55:05;15.80;99.90
39023;DHT22;25908;51.984;5.928;2022-10-15T16:57:31;15.80;99.90
39023;DHT22;25908;51.984;5.928;2022-10-15T16:59:56;15.70;99.90
39023;DHT22;25908;51.984;5.928;2022-10-15T17:02:22;15.70;99.90
39023;DHT22;25908;51.984;5.928;2022-10-15T17:04:47;15.60;99.90
39023;DHT22;25908;51.984;5.928;2022-10-15T17:07:13;15.60;99.90
39023;DHT22;25908;51.984;5.928;2022-10-15T17:09:39;15.60;99.90
39023;DHT22;25908;51.984;5.928;2022-10-15T17:12:04;15.50;99.90
39023;DHT22;25908;51.984;5.928;2022-10-15T17:14:30;15.40;99.90
39023;DHT22;25908;51.984;5.928;2022-10-15T17:16:55;15.40;99.90
39023;DHT22;25908;51.984;5.928;2022-10-15T17:19:23;15.30;99.90
39023;DHT22;25908;51.984;5.928;2022-10-15T17:21:50;15.30;99.90
39023;DHT22;25908;51.984;5.928;2022-10-15T17:24:17;15.20;99.90